createdAt,value
2019-02-28T00:00:10.844Z,31.93
2019-02-28T00:05:06.912Z,23.70
2019-02-28T00:10:05.713Z,30.60
2019-02-28T00:15:04.884Z,23.30
2019-02-28T00:20:00.822Z,21.70
2019-02-28T00:24:56.725Z,25.33
2019-02-28T00:29:52.727Z,21.27
2019-02-28T00:34:48.639Z,25.63
2019-02-28T00:39:44.607Z,19.23
2019-02-28T00:44:43.621Z,26.43
2019-02-28T00:49:39.649Z,23.40
2019-02-28T00:54:35.554Z,24.97
2019-02-28T00:59:31.879Z,18.97
2019-02-28T01:04:29.838Z,25.80
2019-02-28T01:09:27.082Z,20.77
2019-02-28T01:14:24.002Z,26.33
2019-02-28T01:19:19.914Z,23.77
2019-02-28T01:24:15.824Z,20.30
2019-02-28T01:29:11.729Z,23.80
2019-02-28T01:34:07.638Z,22.53
2019-02-28T01:39:05.351Z,23.37
2019-02-28T01:44:02.652Z,20.50
2019-02-28T01:48:58.790Z,20.87
2019-02-28T01:53:54.696Z,26.50
2019-02-28T01:58:51.146Z,30.90
2019-02-28T02:03:47.270Z,24.53
2019-02-28T02:08:43.177Z,19.87
2019-02-28T02:13:39.085Z,24.93
2019-02-28T02:18:34.997Z,25.03
2019-02-28T02:23:31.022Z,26.93
2019-02-28T02:28:27.769Z,27.73
2019-02-28T02:33:23.909Z,29.30
2019-02-28T02:38:19.849Z,27.40
2019-02-28T02:43:15.786Z,23.43
2019-02-28T02:48:11.789Z,26.47
2019-02-28T02:53:07.699Z,41.47
2019-02-28T02:58:03.640Z,29.23
2019-02-28T03:02:59.553Z,40.97
2019-02-28T03:07:59.495Z,28.80
2019-02-28T03:12:53.404Z,32.63
2019-02-28T03:17:49.458Z,28.00
2019-02-28T03:22:47.480Z,28.67
2019-02-28T03:27:43.475Z,34.60
2019-02-28T03:32:42.367Z,29.10
2019-02-28T03:37:37.439Z,33.87
2019-02-28T03:42:33.342Z,33.43
2019-02-28T03:47:29.364Z,31.10
2019-02-28T03:52:25.270Z,29.60
2019-02-28T03:57:27.962Z,32.80
2019-02-28T04:02:22.248Z,33.53
2019-02-28T04:07:17.164Z,30.70
2019-02-28T04:12:13.191Z,28.57
2019-02-28T04:17:09.102Z,35.53
2019-02-28T04:22:05.030Z,44.63
2019-02-28T04:27:06.045Z,30.67
2019-02-28T04:31:59.518Z,34.60
2019-02-28T04:36:56.101Z,35.37
2019-02-28T04:41:52.659Z,35.13
2019-02-28T04:46:48.544Z,35.60
2019-02-28T04:51:44.531Z,42.67
2019-02-28T04:56:42.234Z,30.40
2019-02-28T05:01:38.863Z,31.13
2019-02-28T05:06:34.778Z,44.00
2019-02-28T05:11:31.716Z,33.83
2019-02-28T05:16:28.512Z,40.23
2019-02-28T05:21:24.435Z,42.23
2019-02-28T05:26:20.345Z,30.17
2019-02-28T05:31:16.280Z,34.70
2019-02-28T05:36:12.190Z,37.00
2019-02-28T05:41:08.104Z,37.83
2019-02-28T05:46:04.024Z,38.00
2019-02-28T05:50:59.933Z,38.67
2019-02-28T05:55:58.831Z,32.50
2019-02-28T06:00:53.658Z,37.40
2019-02-28T06:05:49.587Z,35.63
2019-02-28T06:10:45.492Z,46.13
2019-02-28T06:15:42.241Z,44.07
2019-02-28T06:20:38.218Z,46.23
2019-02-28T06:25:34.159Z,46.73
2019-02-28T06:30:30.095Z,41.30
2019-02-28T06:35:26.006Z,52.87
2019-02-28T06:40:21.931Z,54.60
2019-02-28T06:45:20.648Z,53.80
2019-02-28T06:50:16.865Z,58.43
2019-02-28T06:55:20.697Z,66.13
2019-02-28T07:00:16.812Z,46.77
2019-02-28T07:05:12.827Z,65.37
2019-02-28T07:10:16.126Z,63.10
2019-02-28T07:15:15.733Z,57.23
2019-02-28T07:20:13.844Z,55.50
2019-02-28T07:25:12.658Z,53.47
2019-02-28T07:30:17.157Z,62.70
2019-02-28T07:35:11.666Z,84.80
2019-02-28T07:40:15.749Z,92.00
2019-02-28T07:45:12.705Z,76.87
2019-02-28T07:50:14.510Z,99.23
2019-02-28T07:55:15.876Z,90.50
2019-02-28T08:00:18.292Z,93.00
2019-02-28T08:05:13.412Z,86.37
2019-02-28T08:10:47.931Z,77.00
2019-02-28T08:15:43.959Z,88.50
2019-02-28T08:20:40.174Z,107.67
2019-02-28T08:25:36.077Z,99.53
2019-02-28T08:30:33.236Z,82.80
2019-02-28T08:35:33.952Z,100.63
2019-02-28T08:40:27.316Z,104.60
2019-02-28T08:45:24.466Z,97.37
2019-02-28T08:50:24.303Z,95.17
2019-02-28T08:55:28.364Z,87.43
2019-02-28T09:00:19.370Z,112.60
2019-02-28T09:05:15.478Z,99.23
2019-02-28T09:10:37.427Z,95.67
2019-02-28T09:15:37.981Z,88.37
2019-02-28T09:20:33.863Z,98.43
2019-02-28T09:25:29.782Z,109.50
2019-02-28T09:30:32.249Z,110.27
2019-02-28T09:35:28.169Z,109.20
2019-02-28T09:40:25.844Z,95.20
2019-02-28T09:45:29.401Z,114.10
2019-02-28T09:50:25.679Z,107.13
2019-02-28T09:55:21.701Z,105.17
2019-02-28T10:00:19.240Z,112.47
2019-02-28T10:05:15.261Z,100.97
2019-02-28T10:10:21.063Z,117.27
2019-02-28T10:15:22.243Z,118.77
2019-02-28T10:20:26.553Z,65.20
2019-02-28T10:25:19.062Z,112.50
2019-02-28T10:30:30.518Z,117.37
2019-02-28T10:35:18.513Z,113.87
2019-02-28T10:40:18.791Z,123.40
2019-02-28T10:45:15.687Z,118.50
2019-02-28T10:50:33.227Z,119.23
2019-02-28T10:55:27.410Z,115.60
2019-02-28T11:00:29.378Z,120.33
2019-02-28T11:05:36.308Z,122.43
2019-02-28T11:10:37.571Z,107.63
2019-02-28T11:15:35.687Z,124.17
2019-02-28T11:20:33.263Z,96.37
2019-02-28T11:25:34.657Z,114.30
2019-02-28T11:30:30.146Z,136.17
2019-02-28T11:35:26.401Z,107.77
2019-02-28T11:40:25.207Z,99.33
2019-02-28T11:45:35.678Z,104.50
2019-02-28T11:50:32.486Z,55.30
2019-02-28T11:55:30.731Z,106.47
2019-02-28T12:00:36.811Z,101.60
2019-02-28T12:05:34.988Z,117.30
2019-02-28T12:10:34.086Z,107.57
2019-02-28T12:15:44.157Z,106.30
2019-02-28T12:20:40.215Z,117.37
2019-02-28T12:25:36.147Z,110.30
2019-02-28T12:30:33.163Z,98.97
2019-02-28T12:35:29.191Z,99.57
2019-02-28T12:40:30.898Z,121.80
2019-02-28T12:45:32.730Z,103.00
2019-02-28T12:50:30.240Z,125.33
2019-02-28T12:55:26.365Z,91.67
2019-02-28T13:00:28.443Z,115.67
2019-02-28T13:05:24.547Z,106.83
2019-02-28T13:10:26.760Z,102.07
2019-02-28T13:15:19.702Z,108.87
2019-02-28T13:20:22.602Z,99.20
2019-02-28T13:25:19.486Z,61.57
2019-02-28T13:30:18.469Z,104.33
2019-02-28T13:35:19.940Z,112.80
2019-02-28T13:40:22.543Z,103.77
2019-02-28T13:45:23.768Z,103.20
2019-02-28T13:50:25.302Z,70.50
2019-02-28T13:55:20.175Z,120.57
2019-02-28T14:00:35.440Z,90.97
2019-02-28T14:05:38.675Z,109.43
2019-02-28T14:10:29.796Z,120.00
2019-02-28T14:15:37.153Z,116.47
2019-02-28T14:20:33.251Z,86.73
2019-02-28T14:25:29.171Z,106.07
2019-02-28T14:30:25.600Z,68.03
2019-02-28T14:35:23.342Z,78.70
2019-02-28T14:40:19.366Z,108.97
2019-02-28T14:45:31.174Z,69.40
2019-02-28T14:50:27.062Z,93.80
2019-02-28T14:55:23.257Z,71.30
2019-02-28T15:00:24.187Z,49.70
2019-02-28T15:05:21.548Z,95.33
2019-02-28T15:10:21.734Z,79.30
2019-02-28T15:15:19.516Z,78.27
2019-02-28T15:20:17.791Z,100.43
2019-02-28T15:25:18.548Z,84.33
2019-02-28T15:30:18.153Z,110.23
2019-02-28T15:35:21.371Z,93.87
2019-02-28T15:40:27.890Z,106.90
2019-02-28T15:45:27.153Z,91.57
2019-02-28T15:50:24.955Z,99.70
2019-02-28T15:55:22.670Z,94.27
2019-02-28T16:00:30.170Z,92.03
2019-02-28T16:05:27.186Z,122.27
2019-02-28T16:10:35.836Z,111.87
2019-02-28T16:15:46.301Z,96.10
2019-02-28T16:20:47.271Z,116.13
2019-02-28T16:25:46.864Z,125.63
2019-02-28T16:30:42.171Z,123.33
2019-02-28T16:35:38.612Z,127.83
2019-02-28T16:40:34.982Z,86.83
2019-02-28T16:45:42.529Z,118.73
2019-02-28T16:50:42.456Z,118.60
2019-02-28T16:55:39.019Z,89.77
2019-02-28T17:00:35.322Z,119.97
2019-02-28T17:05:33.277Z,103.80
2019-02-28T17:10:33.109Z,121.40
2019-02-28T17:15:33.858Z,110.80
2019-02-28T17:20:30.440Z,114.93
2019-02-28T17:25:26.903Z,96.47
2019-02-28T17:30:32.999Z,114.53
2019-02-28T17:35:34.916Z,82.50
2019-02-28T17:40:31.926Z,88.47
2019-02-28T17:45:29.142Z,100.83
2019-02-28T17:56:22.554Z,86.70
2019-02-28T18:01:21.592Z,87.53
2019-02-28T18:06:37.036Z,72.33
2019-02-28T18:11:52.299Z,46.70
2019-02-28T18:17:05.986Z,63.73
2019-02-28T18:22:24.434Z,75.23
2019-02-28T18:27:46.800Z,69.30
2019-02-28T18:32:43.743Z,68.27
2019-02-28T18:37:40.516Z,74.47
2019-02-28T18:42:37.320Z,76.07
2019-02-28T18:47:36.043Z,75.43
2019-02-28T18:52:35.924Z,80.30
2019-02-28T18:57:33.820Z,93.73
2019-02-28T19:02:30.328Z,81.53
2019-02-28T19:07:26.645Z,81.27
2019-02-28T19:12:23.675Z,98.43
2019-02-28T19:17:20.389Z,91.73
2019-02-28T19:22:17.536Z,98.07
2019-02-28T19:27:14.136Z,82.93
2019-02-28T19:32:10.885Z,111.10
2019-02-28T19:37:11.557Z,97.57
2019-02-28T19:42:23.674Z,108.10
2019-02-28T19:47:25.756Z,108.43
2019-02-28T19:52:22.779Z,87.70
2019-02-28T19:57:20.243Z,92.10
2019-02-28T20:02:16.772Z,99.57
2019-02-28T20:07:14.886Z,99.37
2019-02-28T20:12:11.675Z,95.93
2019-02-28T20:17:08.489Z,103.63
2019-02-28T20:22:05.388Z,98.33
2019-02-28T20:27:01.576Z,94.27
2019-02-28T20:31:58.252Z,99.90
2019-02-28T20:36:57.982Z,79.50
2019-02-28T20:41:54.560Z,92.30
2019-02-28T20:46:51.698Z,76.93
2019-02-28T20:51:55.071Z,75.30
2019-02-28T20:56:47.495Z,76.93
2019-02-28T21:01:44.806Z,58.93
2019-02-28T21:06:42.221Z,69.27
2019-02-28T21:11:38.245Z,76.37
2019-02-28T21:16:37.432Z,50.87
2019-02-28T21:21:33.458Z,78.77
2019-02-28T21:26:32.011Z,68.80
2019-02-28T21:31:28.086Z,62.20
2019-02-28T21:36:24.101Z,65.37
2019-02-28T21:41:20.120Z,66.37
2019-02-28T21:46:21.816Z,68.03
2019-02-28T21:51:17.844Z,68.57
2019-02-28T21:56:13.764Z,65.97
2019-02-28T22:01:09.852Z,68.90
2019-02-28T22:06:05.851Z,64.37
2019-02-28T22:11:01.802Z,57.10
2019-02-28T22:15:57.716Z,73.00
2019-02-28T22:20:53.799Z,65.77
2019-02-28T22:25:49.915Z,76.10
2019-02-28T22:30:47.756Z,85.33
2019-02-28T22:35:45.675Z,83.17
2019-02-28T22:40:41.604Z,74.13
2019-02-28T22:45:38.213Z,67.27
2019-02-28T22:50:34.116Z,53.87
2019-02-28T22:55:30.213Z,44.43
2019-02-28T23:00:31.914Z,46.80
2019-02-28T23:05:27.842Z,50.60
2019-02-28T23:10:23.762Z,44.30
2019-02-28T23:15:21.188Z,37.43
2019-02-28T23:20:17.088Z,43.23
2019-02-28T23:25:13.057Z,44.17
2019-02-28T23:30:33.936Z,45.13
2019-02-28T23:35:32.169Z,44.77
2019-02-28T23:40:28.089Z,50.73
2019-02-28T23:45:25.899Z,49.20
2019-02-28T23:50:21.897Z,41.43
2019-02-28T23:55:17.817Z,45.27
